JBU347 KPSP-KBUF
Flight info
| Callsign | JBU347 |
|---|---|
| Flight time | N/A |
| Altitude | 17000 |
| Route | PSP V370 TNP/N0455F330 TBC/N0453F350 J64 COCAN HELPS SKWYR Q90 BOVEY EDENS SEWTO ICHOL WOZEE |
| Aircraft | A321/M-SDE3FGHIRWY/LB1 |
Departure
| Time | 2026-04-30 20:27 |
|---|---|
| Airport | Palm Springs International Airport (KPSP) |
Arrival
| Time | N/A |
|---|---|
| Airport | Buffalo Niagara International Airport (KBUF) |
| Time | Latitude | Longitude | Altitude | Speed | Heading |
|---|---|---|---|---|---|
| 2026-04-30 20:03 | 33.82275 | -116.50589 | 423 ft | 0 kts | 294° |
| 2026-04-30 20:12 | 33.82275 | -116.50588 | 423 ft | 0 kts | 294° |
| 2026-04-30 20:18 | 33.82267 | -116.50569 | 422 ft | 4 kts | 304° |
| 2026-04-30 20:18 | 33.82250 | -116.50548 | 412 ft | 4 kts | 340° |
| 2026-04-30 20:18 | 33.82231 | -116.50547 | 413 ft | 3 kts | 49° |
| 2026-04-30 20:19 | 33.82226 | -116.50554 | 414 ft | 0 kts | 53° |
| 2026-04-30 20:23 | 33.82238 | -116.50534 | 418 ft | 7 kts | 53° |
| 2026-04-30 20:24 | 33.82270 | -116.50482 | 410 ft | 8 kts | 53° |
| 2026-04-30 20:24 | 33.82305 | -116.50421 | 421 ft | 10 kts | 68° |
| 2026-04-30 20:24 | 33.82272 | -116.50351 | 414 ft | 11 kts | 143° |
| 2026-04-30 20:24 | 33.82201 | -116.50288 | 419 ft | 14 kts | 144° |
| 2026-04-30 20:25 | 33.82008 | -116.50116 | 415 ft | 18 kts | 143° |
| 2026-04-30 20:25 | 33.81902 | -116.50022 | 408 ft | 20 kts | 144° |
| 2026-04-30 20:26 | 33.81874 | -116.49831 | 406 ft | 11 kts | 34° |
| 2026-04-30 20:26 | 33.82048 | -116.49949 | 412 ft | 46 kts | 323° |
| 2026-04-30 20:26 | 33.82519 | -116.50363 | 420 ft | 118 kts | 323° |
| 2026-04-30 20:27 | 33.84329 | -116.52008 | 1004 ft | 182 kts | 324° |
| 2026-04-30 20:27 | 33.86239 | -116.53927 | 2163 ft | 186 kts | 322° |
| 2026-04-30 20:28 | 33.88427 | -116.56004 | 2425 ft | 216 kts | 335° |
| 2026-04-30 20:28 | 33.91446 | -116.55422 | 2704 ft | 253 kts | 47° |
| 2026-04-30 20:29 | 33.91927 | -116.51325 | 3562 ft | 270 kts | 113° |
| 2026-04-30 20:30 | 33.88759 | -116.45600 | 5622 ft | 279 kts | 121° |
| 2026-04-30 20:30 | 33.88438 | -116.38998 | 7631 ft | 276 kts | 64° |
| 2026-04-30 20:31 | 33.90865 | -116.32562 | 9581 ft | 287 kts | 65° |
| 2026-04-30 20:32 | 33.93456 | -116.25553 | 10489 ft | 335 kts | 65° |
| 2026-04-30 20:32 | 33.95427 | -116.20192 | 11113 ft | 361 kts | 65° |
| 2026-04-30 20:33 | 33.96446 | -116.17409 | 11709 ft | 365 kts | 65° |
| 2026-04-30 20:33 | 33.98527 | -116.11744 | 12911 ft | 373 kts | 65° |
| 2026-04-30 20:33 | 33.99593 | -116.08849 | 13504 ft | 378 kts | 65° |
| 2026-04-30 20:34 | 34.01735 | -116.03019 | 14575 ft | 384 kts | 65° |
| 2026-04-30 20:34 | 34.03898 | -115.97116 | 15738 ft | 389 kts | 65° |
| 2026-04-30 20:35 | 34.04989 | -115.94125 | 16303 ft | 392 kts | 65° |
| 2026-04-30 20:35 | 34.06092 | -115.91096 | 16878 ft | 394 kts | 65° |
| 2026-04-30 20:35 | 34.08317 | -115.84994 | 17956 ft | 400 kts | 65° |
| 2026-04-30 20:36 | 34.09440 | -115.81911 | 18438 ft | 403 kts | 65° |
| 2026-04-30 20:36 | 34.10570 | -115.78810 | 18912 ft | 405 kts | 65° |
| 2026-04-30 20:36 | 34.13206 | -115.72822 | 19834 ft | 407 kts | 59° |
| 2026-04-30 20:37 | 34.14627 | -115.69837 | 20299 ft | 409 kts | 59° |
| 2026-04-30 20:37 | 34.16047 | -115.66849 | 20731 ft | 411 kts | 59° |
| 2026-04-30 20:37 | 34.17475 | -115.63845 | 21164 ft | 413 kts | 59° |
| 2026-04-30 20:37 | 34.18908 | -115.60828 | 21592 ft | 414 kts | 58° |
| 2026-04-30 20:38 | 34.20346 | -115.57796 | 22020 ft | 416 kts | 58° |
| 2026-04-30 20:38 | 34.21787 | -115.54752 | 22427 ft | 418 kts | 58° |
| 2026-04-30 20:38 | 34.23217 | -115.51728 | 22827 ft | 420 kts | 58° |
| 2026-04-30 20:39 | 34.26132 | -115.45564 | 23618 ft | 424 kts | 58° |
| 2026-04-30 20:39 | 34.27598 | -115.42458 | 23955 ft | 426 kts | 58° |
| 2026-04-30 20:39 | 34.29072 | -115.39333 | 24285 ft | 427 kts | 58° |
| 2026-04-30 20:40 | 34.32009 | -115.33090 | 24940 ft | 431 kts | 58° |
| 2026-04-30 20:40 | 34.33496 | -115.29923 | 25275 ft | 433 kts | 58° |
| 2026-04-30 20:40 | 34.34988 | -115.26740 | 25594 ft | 435 kts | 58° |
| 2026-04-30 20:41 | 34.37988 | -115.20337 | 26199 ft | 438 kts | 58° |
| 2026-04-30 20:41 | 34.39479 | -115.17150 | 26495 ft | 440 kts | 58° |
| 2026-04-30 20:41 | 34.40987 | -115.13919 | 26777 ft | 442 kts | 58° |
| 2026-04-30 20:41 | 34.42503 | -115.10670 | 27063 ft | 443 kts | 58° |
| 2026-04-30 20:42 | 34.44030 | -115.07408 | 27358 ft | 445 kts | 58° |
| 2026-04-30 20:42 | 34.45562 | -115.04135 | 27648 ft | 447 kts | 58° |
| 2026-04-30 20:42 | 34.48635 | -114.97542 | 28228 ft | 450 kts | 58° |
| 2026-04-30 20:43 | 34.50160 | -114.94262 | 28496 ft | 452 kts | 58° |
| 2026-04-30 20:43 | 34.51703 | -114.90943 | 28828 ft | 451 kts | 58° |
| 2026-04-30 20:43 | 34.53254 | -114.87609 | 29239 ft | 450 kts | 58° |
| 2026-04-30 20:44 | 34.56323 | -114.80997 | 30013 ft | 448 kts | 58° |
| 2026-04-30 20:44 | 34.57835 | -114.77737 | 30319 ft | 448 kts | 58° |
| 2026-04-30 20:44 | 34.60896 | -114.71128 | 30919 ft | 447 kts | 58° |
| 2026-04-30 20:45 | 34.63921 | -114.64586 | 31509 ft | 447 kts | 58° |
| 2026-04-30 20:45 | 34.65443 | -114.61283 | 31805 ft | 447 kts | 58° |
| 2026-04-30 20:45 | 34.66960 | -114.57983 | 32096 ft | 446 kts | 59° |
| 2026-04-30 20:46 | 34.71472 | -114.48143 | 32978 ft | 445 kts | 58° |
| 2026-04-30 20:46 | 34.72982 | -114.44854 | 33275 ft | 445 kts | 58° |
| 2026-04-30 20:47 | 34.75995 | -114.38277 | 33758 ft | 444 kts | 58° |
| 2026-04-30 20:47 | 34.77500 | -114.34987 | 33996 ft | 444 kts | 59° |
| 2026-04-30 20:48 | 34.80510 | -114.28410 | 34408 ft | 445 kts | 59° |
| 2026-04-30 20:48 | 34.81992 | -114.25160 | 34599 ft | 445 kts | 59° |
| 2026-04-30 20:48 | 34.83493 | -114.21855 | 34745 ft | 446 kts | 59° |
| 2026-04-30 20:48 | 34.85003 | -114.18533 | 34800 ft | 447 kts | 59° |
| 2026-04-30 20:49 | 34.88021 | -114.11883 | 34801 ft | 448 kts | 59° |
| 2026-04-30 20:50 | 34.92537 | -114.01951 | 34820 ft | 448 kts | 59° |
| 2026-04-30 20:50 | 34.95565 | -113.95268 | 34851 ft | 449 kts | 59° |
| 2026-04-30 20:51 | 34.98584 | -113.88572 | 34869 ft | 450 kts | 59° |
| 2026-04-30 20:51 | 35.03095 | -113.78554 | 34882 ft | 451 kts | 59° |
| 2026-04-30 20:52 | 35.06121 | -113.71818 | 34871 ft | 452 kts | 59° |
| 2026-04-30 20:53 | 35.10654 | -113.61716 | 34856 ft | 454 kts | 59° |
| 2026-04-30 20:53 | 35.13684 | -113.54936 | 34844 ft | 455 kts | 59° |
| 2026-04-30 20:54 | 35.18232 | -113.44727 | 34845 ft | 456 kts | 60° |
| 2026-04-30 20:55 | 35.22782 | -113.34507 | 34852 ft | 458 kts | 60° |
| 2026-04-30 20:55 | 35.25829 | -113.27640 | 34861 ft | 459 kts | 60° |
| 2026-04-30 20:56 | 35.30381 | -113.17344 | 34862 ft | 460 kts | 60° |
| 2026-04-30 20:57 | 35.34934 | -113.07021 | 34873 ft | 461 kts | 60° |
| 2026-04-30 20:57 | 35.37977 | -113.00086 | 34878 ft | 462 kts | 60° |
| 2026-04-30 20:58 | 35.42040 | -112.90840 | 34886 ft | 464 kts | 60° |
| 2026-04-30 20:58 | 35.45109 | -112.83854 | 34892 ft | 464 kts | 60° |
| 2026-04-30 20:59 | 35.49699 | -112.73352 | 34898 ft | 466 kts | 61° |
| 2026-04-30 21:00 | 35.55784 | -112.59323 | 34899 ft | 468 kts | 61° |
| 2026-04-30 21:01 | 35.60384 | -112.48705 | 34907 ft | 469 kts | 61° |
| 2026-04-30 21:02 | 35.64991 | -112.38078 | 34916 ft | 471 kts | 61° |
| 2026-04-30 21:02 | 35.68066 | -112.30942 | 34954 ft | 472 kts | 61° |
| 2026-04-30 21:03 | 35.71116 | -112.23834 | 34988 ft | 473 kts | 61° |
| 2026-04-30 21:03 | 35.74193 | -112.16661 | 35038 ft | 473 kts | 61° |
| 2026-04-30 21:04 | 35.77277 | -112.09455 | 35029 ft | 474 kts | 61° |
| 2026-04-30 21:04 | 35.81885 | -111.98704 | 35036 ft | 476 kts | 61° |
| 2026-04-30 21:05 | 35.84972 | -111.91460 | 35018 ft | 477 kts | 61° |
| 2026-04-30 21:05 | 35.88051 | -111.84200 | 34987 ft | 478 kts | 61° |
| 2026-04-30 21:06 | 35.91124 | -111.76936 | 34946 ft | 479 kts | 61° |
| 2026-04-30 21:06 | 35.94212 | -111.69631 | 34901 ft | 480 kts | 61° |
| 2026-04-30 21:07 | 35.97316 | -111.62299 | 34894 ft | 482 kts | 61° |
| 2026-04-30 21:07 | 36.00398 | -111.54986 | 34882 ft | 483 kts | 62° |
| 2026-04-30 21:08 | 36.03493 | -111.47604 | 34875 ft | 484 kts | 61° |
| 2026-04-30 21:08 | 36.06603 | -111.40205 | 34876 ft | 485 kts | 62° |
| 2026-04-30 21:09 | 36.09695 | -111.32810 | 34877 ft | 486 kts | 62° |
| 2026-04-30 21:09 | 36.12493 | -111.25187 | 34877 ft | 488 kts | 72° |
| 2026-04-30 21:10 | 36.14241 | -111.17055 | 34874 ft | 489 kts | 75° |
| 2026-04-30 21:10 | 36.15955 | -111.08888 | 34877 ft | 490 kts | 75° |
| 2026-04-30 21:11 | 36.17668 | -111.00753 | 34874 ft | 492 kts | 75° |
| 2026-04-30 21:11 | 36.19408 | -110.92535 | 34872 ft | 493 kts | 75° |
| 2026-04-30 21:12 | 36.21139 | -110.84295 | 34875 ft | 494 kts | 76° |
| 2026-04-30 21:12 | 36.22841 | -110.76088 | 34873 ft | 495 kts | 76° |
| 2026-04-30 21:13 | 36.24549 | -110.67814 | 34873 ft | 496 kts | 76° |
| 2026-04-30 21:13 | 36.26267 | -110.59504 | 34873 ft | 497 kts | 76° |
| 2026-04-30 21:14 | 36.27982 | -110.51173 | 34875 ft | 499 kts | 76° |
| 2026-04-30 21:14 | 36.29695 | -110.42836 | 34874 ft | 500 kts | 76° |
| 2026-04-30 21:15 | 36.31566 | -110.34588 | 34863 ft | 500 kts | 68° |
| 2026-04-30 21:15 | 36.34527 | -110.26763 | 34871 ft | 501 kts | 63° |
| 2026-04-30 21:16 | 36.37564 | -110.18958 | 34871 ft | 502 kts | 63° |
| 2026-04-30 21:16 | 36.40595 | -110.11120 | 34883 ft | 503 kts | 63° |
| 2026-04-30 21:17 | 36.43609 | -110.03305 | 34876 ft | 504 kts | 63° |
| 2026-04-30 21:17 | 36.46626 | -109.95464 | 34874 ft | 505 kts | 63° |
| 2026-04-30 21:18 | 36.49664 | -109.87561 | 34869 ft | 507 kts | 63° |
| 2026-04-30 21:18 | 36.52697 | -109.79619 | 34879 ft | 508 kts | 64° |
| 2026-04-30 21:19 | 36.55721 | -109.71683 | 34883 ft | 509 kts | 63° |
| 2026-04-30 21:19 | 36.58765 | -109.63709 | 34895 ft | 511 kts | 63° |
| 2026-04-30 21:20 | 36.61793 | -109.55734 | 34895 ft | 512 kts | 63° |
| 2026-04-30 21:20 | 36.64850 | -109.47695 | 34907 ft | 513 kts | 63° |
| 2026-04-30 21:21 | 36.67877 | -109.39684 | 34916 ft | 514 kts | 63° |
| 2026-04-30 21:22 | 36.72446 | -109.27545 | 34908 ft | 515 kts | 63° |
| 2026-04-30 21:23 | 36.78530 | -109.11339 | 34898 ft | 518 kts | 63° |
| 2026-04-30 21:23 | 36.83097 | -108.99098 | 34892 ft | 518 kts | 63° |
| 2026-04-30 21:24 | 36.86125 | -108.90971 | 34891 ft | 519 kts | 63° |
| 2026-04-30 21:24 | 36.89171 | -108.82747 | 34891 ft | 520 kts | 63° |
| 2026-04-30 21:25 | 36.93716 | -108.70470 | 34895 ft | 521 kts | 63° |
| 2026-04-30 21:26 | 36.98285 | -108.58074 | 34917 ft | 523 kts | 63° |
| 2026-04-30 21:27 | 37.02835 | -108.45683 | 34935 ft | 525 kts | 63° |
| 2026-04-30 21:27 | 37.05877 | -108.37355 | 34942 ft | 525 kts | 64° |
| 2026-04-30 21:28 | 37.10420 | -108.24869 | 34920 ft | 527 kts | 64° |
| 2026-04-30 21:29 | 37.14990 | -108.12295 | 34951 ft | 528 kts | 64° |
| 2026-04-30 21:30 | 37.22576 | -107.91321 | 35009 ft | 529 kts | 64° |
| 2026-04-30 21:31 | 37.30120 | -107.70261 | 35010 ft | 531 kts | 64° |
| 2026-04-30 21:32 | 37.34663 | -107.57536 | 34976 ft | 532 kts | 64° |
| 2026-04-30 21:32 | 37.37662 | -107.49089 | 34950 ft | 532 kts | 64° |
| 2026-04-30 21:33 | 37.42178 | -107.36309 | 34974 ft | 533 kts | 64° |
| 2026-04-30 21:34 | 37.45199 | -107.27764 | 34997 ft | 533 kts | 64° |
| 2026-04-30 21:34 | 37.49701 | -107.14980 | 35003 ft | 534 kts | 64° |
| 2026-04-30 21:35 | 37.52693 | -107.06407 | 34991 ft | 534 kts | 64° |
| 2026-04-30 21:35 | 37.55669 | -106.97868 | 34975 ft | 536 kts | 64° |
| 2026-04-30 21:36 | 37.58670 | -106.89249 | 34958 ft | 537 kts | 64° |
| 2026-04-30 21:37 | 37.64329 | -106.71784 | 34979 ft | 540 kts | 68° |
| 2026-04-30 21:37 | 37.66872 | -106.62827 | 35025 ft | 541 kts | 68° |
| 2026-04-30 21:38 | 37.69445 | -106.53884 | 35061 ft | 541 kts | 68° |
| 2026-04-30 21:38 | 37.72071 | -106.45024 | 35096 ft | 542 kts | 67° |
| 2026-04-30 21:39 | 37.74724 | -106.36100 | 35096 ft | 542 kts | 68° |
| 2026-04-30 21:39 | 37.77362 | -106.27143 | 35099 ft | 543 kts | 68° |
| 2026-04-30 21:40 | 37.79962 | -106.18237 | 35055 ft | 543 kts | 68° |
| 2026-04-30 21:40 | 37.82570 | -106.09246 | 35009 ft | 543 kts | 68° |
| 2026-04-30 21:41 | 37.85173 | -106.00259 | 34963 ft | 544 kts | 68° |
| 2026-04-30 21:41 | 37.87759 | -105.91330 | 34944 ft | 544 kts | 68° |
| 2026-04-30 21:42 | 37.90354 | -105.82317 | 34965 ft | 545 kts | 68° |
| 2026-04-30 21:42 | 37.92958 | -105.73258 | 35003 ft | 546 kts | 68° |
| 2026-04-30 21:43 | 37.95112 | -105.65731 | 35035 ft | 547 kts | 68° |
| 2026-04-30 21:43 | 37.98139 | -105.55102 | 35070 ft | 548 kts | 68° |
| 2026-04-30 21:44 | 38.00721 | -105.46041 | 35106 ft | 549 kts | 68° |
| 2026-04-30 21:44 | 38.03319 | -105.36914 | 35137 ft | 551 kts | 68° |
| 2026-04-30 21:45 | 38.05903 | -105.27775 | 35155 ft | 552 kts | 68° |
| 2026-04-30 21:45 | 38.08065 | -105.20077 | 35156 ft | 553 kts | 68° |
| 2026-04-30 21:46 | 38.10622 | -105.10936 | 35163 ft | 554 kts | 68° |
| 2026-04-30 21:46 | 38.13209 | -105.01687 | 35165 ft | 555 kts | 68° |
| 2026-04-30 21:47 | 38.15797 | -104.92425 | 35170 ft | 556 kts | 68° |
| 2026-04-30 21:47 | 38.18363 | -104.83199 | 35174 ft | 557 kts | 68° |
| 2026-04-30 21:48 | 38.20935 | -104.73881 | 35186 ft | 557 kts | 68° |
| 2026-04-30 21:48 | 38.23498 | -104.64546 | 35198 ft | 558 kts | 68° |
| 2026-04-30 21:49 | 38.26053 | -104.55270 | 35196 ft | 558 kts | 68° |
| 2026-04-30 21:49 | 38.28626 | -104.45906 | 35197 ft | 559 kts | 68° |
| 2026-04-30 21:50 | 38.31173 | -104.36559 | 35200 ft | 559 kts | 68° |
| 2026-04-30 21:50 | 38.33701 | -104.27244 | 35193 ft | 559 kts | 68° |
| 2026-04-30 21:51 | 38.36238 | -104.17860 | 35194 ft | 560 kts | 69° |
| 2026-04-30 21:51 | 38.38777 | -104.08469 | 35178 ft | 560 kts | 68° |
| 2026-04-30 21:52 | 38.41298 | -103.99116 | 35168 ft | 560 kts | 69° |
| 2026-04-30 21:52 | 38.43809 | -103.89709 | 35165 ft | 560 kts | 69° |
| 2026-04-30 21:53 | 38.46303 | -103.80332 | 35169 ft | 560 kts | 69° |
| 2026-04-30 21:53 | 38.48813 | -103.70884 | 35170 ft | 561 kts | 69° |
| 2026-04-30 21:54 | 38.51325 | -103.61428 | 35170 ft | 561 kts | 69° |
| 2026-04-30 21:54 | 38.53817 | -103.52015 | 35174 ft | 561 kts | 69° |
| 2026-04-30 21:55 | 38.56305 | -103.42526 | 35181 ft | 562 kts | 69° |
| 2026-04-30 21:55 | 38.58769 | -103.33095 | 35179 ft | 561 kts | 69° |
| 2026-04-30 21:56 | 38.61243 | -103.23620 | 35181 ft | 561 kts | 69° |
| 2026-04-30 21:56 | 38.63703 | -103.14165 | 35180 ft | 561 kts | 69° |
| 2026-04-30 21:57 | 38.66094 | -103.04644 | 35185 ft | 561 kts | 71° |
| 2026-04-30 21:57 | 38.68220 | -102.95077 | 35189 ft | 562 kts | 72° |
| 2026-04-30 21:58 | 38.70261 | -102.85390 | 35192 ft | 562 kts | 72° |
| 2026-04-30 21:58 | 38.72351 | -102.75737 | 35197 ft | 562 kts | 72° |
| 2026-04-30 21:59 | 38.74495 | -102.66132 | 35199 ft | 562 kts | 71° |
| 2026-04-30 22:00 | 38.77696 | -102.51672 | 35208 ft | 563 kts | 72° |
| 2026-04-30 22:00 | 38.80827 | -102.37175 | 35209 ft | 563 kts | 72° |
| 2026-04-30 22:01 | 38.82924 | -102.27463 | 35217 ft | 564 kts | 72° |
| 2026-04-30 22:01 | 38.85018 | -102.17773 | 35220 ft | 564 kts | 72° |
| 2026-04-30 22:02 | 38.87100 | -102.08092 | 35216 ft | 564 kts | 72° |
| 2026-04-30 22:02 | 38.89167 | -101.98414 | 35220 ft | 565 kts | 72° |
| 2026-04-30 22:03 | 38.91246 | -101.88648 | 35221 ft | 565 kts | 72° |
| 2026-04-30 22:03 | 38.93306 | -101.78909 | 35196 ft | 565 kts | 72° |
| 2026-04-30 22:04 | 38.95359 | -101.69140 | 35199 ft | 565 kts | 72° |
| 2026-04-30 22:05 | 38.98415 | -101.54560 | 35201 ft | 565 kts | 72° |
| 2026-04-30 22:05 | 39.00450 | -101.44791 | 35191 ft | 565 kts | 72° |
| 2026-04-30 22:06 | 39.02470 | -101.35049 | 35200 ft | 566 kts | 73° |
| 2026-04-30 22:06 | 39.05503 | -101.20321 | 35208 ft | 566 kts | 73° |
| 2026-04-30 22:07 | 39.07500 | -101.10567 | 35215 ft | 567 kts | 73° |
| 2026-04-30 22:07 | 39.09512 | -101.00742 | 35208 ft | 567 kts | 72° |
| 2026-04-30 22:08 | 39.11509 | -100.90965 | 35208 ft | 567 kts | 73° |
| 2026-04-30 22:08 | 39.13496 | -100.81109 | 35210 ft | 567 kts | 73° |
| 2026-04-30 22:09 | 39.15466 | -100.71266 | 35205 ft | 567 kts | 73° |
| 2026-04-30 22:09 | 39.17433 | -100.61419 | 35214 ft | 567 kts | 73° |
| 2026-04-30 22:10 | 39.19383 | -100.51634 | 35202 ft | 566 kts | 73° |
| 2026-04-30 22:10 | 39.21335 | -100.41788 | 35211 ft | 566 kts | 73° |
| 2026-04-30 22:11 | 39.24243 | -100.27060 | 35200 ft | 566 kts | 72° |
| 2026-04-30 22:12 | 39.26456 | -100.17320 | 35200 ft | 564 kts | 68° |
| 2026-04-30 22:12 | 39.29010 | -100.07771 | 35194 ft | 562 kts | 66° |
| 2026-04-30 22:13 | 39.31564 | -99.98222 | 35191 ft | 563 kts | 68° |
| 2026-04-30 22:13 | 39.33985 | -99.88564 | 35189 ft | 564 kts | 69° |
| 2026-04-30 22:14 | 39.36322 | -99.78958 | 35191 ft | 563 kts | 69° |
| 2026-04-30 22:14 | 39.38702 | -99.69263 | 35188 ft | 563 kts | 68° |
| 2026-04-30 22:15 | 39.41081 | -99.59680 | 35193 ft | 563 kts | 68° |
| 2026-04-30 22:15 | 39.43477 | -99.50014 | 35194 ft | 562 kts | 68° |
| 2026-04-30 22:16 | 39.45838 | -99.40428 | 35187 ft | 562 kts | 69° |
| 2026-04-30 22:17 | 39.50536 | -99.21105 | 35184 ft | 562 kts | 69° |
| 2026-04-30 22:17 | 39.54021 | -99.06643 | 35185 ft | 562 kts | 69° |
| 2026-04-30 22:18 | 39.57512 | -98.92141 | 35184 ft | 561 kts | 69° |
| 2026-04-30 22:19 | 39.60983 | -98.77682 | 35186 ft | 560 kts | 69° |
| 2026-04-30 22:20 | 39.64419 | -98.63202 | 35180 ft | 559 kts | 69° |
| 2026-04-30 22:20 | 39.67832 | -98.48712 | 35179 ft | 559 kts | 69° |
| 2026-04-30 22:21 | 39.70096 | -98.39111 | 35177 ft | 558 kts | 69° |
| 2026-04-30 22:21 | 39.72360 | -98.29463 | 35179 ft | 558 kts | 69° |
| 2026-04-30 22:22 | 39.74612 | -98.19807 | 35175 ft | 557 kts | 69° |
| 2026-04-30 22:22 | 39.76849 | -98.10147 | 35172 ft | 557 kts | 69° |
| 2026-04-30 22:23 | 39.79060 | -98.00550 | 35169 ft | 556 kts | 69° |
| 2026-04-30 22:23 | 39.81278 | -97.90914 | 35162 ft | 555 kts | 69° |
| 2026-04-30 22:24 | 39.83486 | -97.81272 | 35159 ft | 555 kts | 70° |
| 2026-04-30 22:24 | 39.85659 | -97.71706 | 35164 ft | 554 kts | 70° |
| 2026-04-30 22:25 | 39.87845 | -97.62080 | 35168 ft | 553 kts | 70° |
| 2026-04-30 22:25 | 39.90010 | -97.52469 | 35166 ft | 552 kts | 70° |
| 2026-04-30 22:26 | 39.93212 | -97.38114 | 35161 ft | 551 kts | 70° |
| 2026-04-30 22:27 | 39.95341 | -97.28490 | 35161 ft | 550 kts | 70° |
| 2026-04-30 22:27 | 39.98516 | -97.14110 | 35167 ft | 549 kts | 70° |
| 2026-04-30 22:28 | 40.01657 | -96.99813 | 35169 ft | 548 kts | 70° |
| 2026-04-30 22:29 | 40.05823 | -96.80717 | 35162 ft | 547 kts | 71° |
| 2026-04-30 22:31 | 40.13012 | -96.47327 | 35165 ft | 544 kts | 71° |
| 2026-04-30 22:32 | 40.17990 | -96.23573 | 35159 ft | 542 kts | 72° |
| 2026-04-30 22:33 | 40.22376 | -95.99638 | 35149 ft | 541 kts | 73° |
| 2026-04-30 22:35 | 40.26525 | -95.77363 | 35143 ft | 540 kts | 73° |
| 2026-04-30 22:36 | 40.30889 | -95.53463 | 35138 ft | 539 kts | 73° |
| 2026-04-30 22:37 | 40.34352 | -95.34360 | 35143 ft | 538 kts | 74° |
| 2026-04-30 22:38 | 40.37673 | -95.15214 | 35138 ft | 538 kts | 75° |
| 2026-04-30 22:39 | 40.40061 | -95.00837 | 35138 ft | 537 kts | 75° |
| 2026-04-30 22:40 | 40.44821 | -94.72196 | 35134 ft | 535 kts | 75° |
| 2026-04-30 22:41 | 40.48724 | -94.48376 | 35133 ft | 534 kts | 75° |
| 2026-04-30 22:43 | 40.53338 | -94.19740 | 35124 ft | 533 kts | 75° |
| 2026-04-30 22:44 | 40.56362 | -94.00722 | 35124 ft | 532 kts | 76° |
| 2026-04-30 22:45 | 40.60828 | -93.72176 | 35120 ft | 530 kts | 76° |
| 2026-04-30 22:47 | 40.65215 | -93.43692 | 35112 ft | 530 kts | 76° |
| 2026-04-30 22:48 | 40.68104 | -93.24660 | 35110 ft | 529 kts | 76° |
| 2026-04-30 22:49 | 40.72366 | -92.96115 | 35110 ft | 529 kts | 76° |
| 2026-04-30 22:51 | 40.76569 | -92.67559 | 35107 ft | 528 kts | 77° |
| 2026-04-30 22:52 | 40.78626 | -92.53328 | 35098 ft | 528 kts | 77° |
| 2026-04-30 22:53 | 40.81361 | -92.34250 | 35087 ft | 528 kts | 77° |
| 2026-04-30 22:53 | 40.83387 | -92.19975 | 35084 ft | 528 kts | 77° |
| 2026-04-30 22:55 | 40.86734 | -91.96129 | 35083 ft | 528 kts | 77° |
| 2026-04-30 22:56 | 40.89384 | -91.77016 | 35074 ft | 528 kts | 77° |
| 2026-04-30 22:57 | 40.92624 | -91.53184 | 35067 ft | 527 kts | 77° |
| 2026-04-30 22:58 | 40.95180 | -91.34115 | 35064 ft | 527 kts | 78° |
| 2026-04-30 22:59 | 40.98966 | -91.05411 | 35050 ft | 527 kts | 78° |